Time,TemperatureF,DewpointF,PressureIn,WindDirection,WindDirectionDegrees,WindSpeedMPH,WindSpeedGustMPH,Humidity,HourlyPrecipIn,Conditions,Clouds,dailyrainin,SoftwareType,DateUTC
2013-03-04 00:00:00,21.2,19.0,30.12,WNW,294,0.0,11.0,91,0.00,,,0.00,Wunderground v.1.15,2013-03-04 05:00:00,
2013-03-04 00:05:00,21.2,19.0,30.12,WNW,294,0.0,11.0,91,0.00,,,0.00,Wunderground v.1.15,2013-03-04 05:05:00,
2013-03-04 00:10:00,21.0,18.5,30.12,WNW,294,0.0,11.0,90,0.00,,,0.00,Wunderground v.1.15,2013-03-04 05:10:00,
2013-03-04 00:15:00,20.8,18.6,30.12,WNW,294,0.0,11.0,91,0.00,,,0.00,Wunderground v.1.15,2013-03-04 05:15:00,
2013-03-04 00:20:00,20.7,18.5,30.12,WNW,294,0.0,11.0,91,0.00,,,0.00,Wunderground v.1.15,2013-03-04 05:20:00,
2013-03-04 00:25:00,20.7,18.5,30.12,WNW,294,0.0,11.0,91,0.00,,,0.00,Wunderground v.1.15,2013-03-04 05:25:00,
2013-03-04 00:30:00,20.9,18.9,30.12,WNW,294,0.0,11.0,92,0.00,,,0.00,Wunderground v.1.15,2013-03-04 05:30:00,
2013-03-04 00:35:00,20.9,18.7,30.12,WNW,294,0.0,11.0,91,0.00,,,0.00,Wunderground v.1.15,2013-03-04 05:35:00,
2013-03-04 00:40:00,20.8,18.3,30.12,WNW,294,0.0,11.0,90,0.00,,,0.00,Wunderground v.1.15,2013-03-04 05:40:00,
2013-03-04 00:45:00,20.7,18.2,30.11,WNW,294,0.0,11.0,90,0.00,,,0.00,Wunderground v.1.15,2013-03-04 05:45:00,
2013-03-04 00:50:00,20.6,18.4,30.12,WNW,294,0.0,11.0,91,0.00,,,0.00,Wunderground v.1.15,2013-03-04 05:50:00,
2013-03-04 01:00:00,20.4,18.2,30.12,WNW,294,0.0,11.0,91,0.00,,,0.00,Wunderground v.1.15,2013-03-04 06:00:00,
2013-03-04 01:05:00,20.4,18.2,30.12,WNW,294,0.0,11.0,91,0.00,,,0.00,Wunderground v.1.15,2013-03-04 06:05:00,
2013-03-04 01:10:00,20.4,18.2,30.12,WNW,294,0.0,11.0,91,0.00,,,0.00,Wunderground v.1.15,2013-03-04 06:10:00,
2013-03-04 01:15:00,20.4,18.2,30.12,WNW,294,0.0,11.0,91,0.00,,,0.00,Wunderground v.1.15,2013-03-04 06:15:00,
2013-03-04 01:20:00,20.3,18.3,30.12,WNW,294,0.0,11.0,92,0.00,,,0.00,Wunderground v.1.15,2013-03-04 06:20:00,
2013-03-04 01:25:00,20.4,18.7,30.13,WNW,294,0.0,11.0,93,0.00,,,0.00,Wunderground v.1.15,2013-03-04 06:25:00,
2013-03-04 01:30:00,20.4,18.7,30.13,WNW,294,0.0,11.0,93,0.00,,,0.00,Wunderground v.1.15,2013-03-04 06:30:00,
2013-03-04 01:35:00,20.2,18.2,30.13,WNW,294,0.0,11.0,92,0.00,,,0.00,Wunderground v.1.15,2013-03-04 06:35:00,
2013-03-04 01:40:00,20.1,18.1,30.13,WNW,294,0.0,11.0,92,0.00,,,0.00,Wunderground v.1.15,2013-03-04 06:40:00,
2013-03-04 01:45:00,19.9,18.0,30.13,WNW,294,0.0,11.0,92,0.00,,,0.00,Wunderground v.1.15,2013-03-04 06:45:00,
2013-03-04 01:55:00,19.6,17.7,30.13,WNW,294,0.0,11.0,92,0.00,,,0.00,Wunderground v.1.15,2013-03-04 06:55:00,
2013-03-04 02:00:00,19.5,17.6,30.13,WNW,294,0.0,11.0,92,0.00,,,0.00,Wunderground v.1.15,2013-03-04 07:00:00,
2013-03-04 02:10:00,19.4,17.5,30.14,WNW,294,0.0,11.0,92,0.00,,,0.00,Wunderground v.1.15,2013-03-04 07:10:00,
2013-03-04 02:15:00,19.4,17.5,30.14,WNW,294,0.0,11.0,92,0.00,,,0.00,Wunderground v.1.15,2013-03-04 07:15:00,
2013-03-04 02:20:00,19.4,17.5,30.14,WNW,294,0.0,11.0,92,0.00,,,0.00,Wunderground v.1.15,2013-03-04 07:20:00,
2013-03-04 02:25:00,19.3,17.4,30.14,WNW,294,0.0,11.0,92,0.00,,,0.00,Wunderground v.1.15,2013-03-04 07:25:00,
2013-03-04 02:35:00,19.4,17.7,30.13,WNW,294,0.0,11.0,93,0.00,,,0.00,Wunderground v.1.15,2013-03-04 07:35:00,
2013-03-04 02:40:00,19.4,17.7,30.13,WNW,294,0.0,11.0,93,0.00,,,0.00,Wunderground v.1.15,2013-03-04 07:40:00,
2013-03-04 02:45:00,19.4,17.7,30.13,WNW,294,0.0,11.0,93,0.00,,,0.00,Wunderground v.1.15,2013-03-04 07:45:00,
2013-03-04 02:50:00,19.4,17.7,30.13,WNW,294,0.0,11.0,93,0.00,,,0.00,Wunderground v.1.15,2013-03-04 07:50:00,
2013-03-04 02:55:00,19.4,18.0,30.13,WNW,294,0.0,11.0,94,0.00,,,0.00,Wunderground v.1.15,2013-03-04 07:55:00,
2013-03-04 03:05:00,19.4,18.0,30.13,WNW,294,0.0,11.0,94,0.00,,,0.00,Wunderground v.1.15,2013-03-04 08:05:00,
2013-03-04 03:15:00,19.5,18.1,30.13,WNW,294,0.0,11.0,94,0.00,,,0.00,Wunderground v.1.15,2013-03-04 08:15:00,
2013-03-04 03:20:00,19.5,18.1,30.13,WNW,294,0.0,11.0,94,0.00,,,0.00,Wunderground v.1.15,2013-03-04 08:20:00,
2013-03-04 03:25:00,19.5,18.1,30.13,WNW,294,0.0,11.0,94,0.00,,,0.00,Wunderground v.1.15,2013-03-04 08:25:00,
2013-03-04 03:30:00,19.6,18.4,30.13,WNW,294,0.0,11.0,95,0.00,,,0.00,Wunderground v.1.15,2013-03-04 08:30:00,
2013-03-04 03:35:00,19.9,18.7,30.13,WNW,294,0.0,11.0,95,0.00,,,0.00,Wunderground v.1.15,2013-03-04 08:35:00,
2013-03-04 03:45:00,20.0,18.8,30.14,WNW,294,0.0,11.0,95,0.00,,,0.00,Wunderground v.1.15,2013-03-04 08:45:00,
2013-03-04 03:50:00,20.1,18.9,30.13,WNW,294,0.0,11.0,95,0.00,,,0.00,Wunderground v.1.15,2013-03-04 08:50:00,
2013-03-04 04:00:00,19.9,18.7,30.13,WNW,294,0.0,11.0,95,0.00,,,0.00,Wunderground v.1.15,2013-03-04 09:00:00,
2013-03-04 04:05:00,19.8,18.6,30.13,WNW,294,0.0,11.0,95,0.00,,,0.00,Wunderground v.1.15,2013-03-04 09:05:00,
2013-03-04 04:10:00,19.7,18.5,30.13,WNW,294,0.0,11.0,95,0.00,,,0.00,Wunderground v.1.15,2013-03-04 09:10:00,
2013-03-04 04:20:00,19.5,18.3,30.13,WNW,294,0.0,11.0,95,0.00,,,0.00,Wunderground v.1.15,2013-03-04 09:20:00,
2013-03-04 04:25:00,19.6,18.4,30.13,WNW,294,0.0,11.0,95,0.00,,,0.00,Wunderground v.1.15,2013-03-04 09:25:00,
2013-03-04 04:30:00,19.7,18.5,30.13,WNW,294,0.0,11.0,95,0.00,,,0.00,Wunderground v.1.15,2013-03-04 09:30:00,
2013-03-04 04:35:00,19.7,18.5,30.13,WNW,294,0.0,11.0,95,0.00,,,0.00,Wunderground v.1.15,2013-03-04 09:35:00,
2013-03-04 04:45:00,19.5,18.3,30.13,WNW,294,0.0,11.0,95,0.00,,,0.00,Wunderground v.1.15,2013-03-04 09:45:00,
2013-03-04 04:50:00,19.4,18.2,30.13,WNW,294,0.0,11.0,95,0.00,,,0.00,Wunderground v.1.15,2013-03-04 09:50:00,
2013-03-04 04:55:00,19.3,18.1,30.13,WNW,294,0.0,11.0,95,0.00,,,0.00,Wunderground v.1.15,2013-03-04 09:55:00,
2013-03-04 05:00:00,19.2,18.0,30.14,WNW,294,0.0,11.0,95,0.00,,,0.00,Wunderground v.1.15,2013-03-04 10:00:00,
2013-03-04 05:05:00,19.1,17.9,30.13,WNW,294,0.0,11.0,95,0.00,,,0.00,Wunderground v.1.15,2013-03-04 10:05:00,
2013-03-04 05:10:00,19.1,17.9,30.13,WNW,294,0.0,11.0,95,0.00,,,0.00,Wunderground v.1.15,2013-03-04 10:10:00,
2013-03-04 05:15:00,19.1,17.9,30.13,WNW,294,0.0,11.0,95,0.00,,,0.00,Wunderground v.1.15,2013-03-04 10:15:00,
2013-03-04 05:25:00,19.1,17.9,30.13,WNW,294,0.0,11.0,95,0.00,,,0.00,Wunderground v.1.15,2013-03-04 10:25:00,
2013-03-04 05:30:00,19.0,17.8,30.13,WNW,294,0.0,11.0,95,0.00,,,0.00,Wunderground v.1.15,2013-03-04 10:30:00,
2013-03-04 05:40:00,18.9,17.7,30.13,WNW,294,0.0,11.0,95,0.00,,,0.00,Wunderground v.1.15,2013-03-04 10:40:00,
2013-03-04 05:45:00,18.9,17.7,30.13,WNW,294,0.0,11.0,95,0.00,,,0.00,Wunderground v.1.15,2013-03-04 10:45:00,
2013-03-04 05:50:00,18.8,17.6,30.13,WNW,294,0.0,11.0,95,0.00,,,0.00,Wunderground v.1.15,2013-03-04 10:50:00,
2013-03-04 06:00:00,18.7,17.5,30.13,WNW,294,0.0,0.0,95,0.00,,,0.00,Wunderground v.1.15,2013-03-04 11:00:00,
2013-03-04 06:10:00,19.1,17.9,30.13,WNW,294,0.0,0.0,95,0.00,,,0.00,Wunderground v.1.15,2013-03-04 11:10:00,
2013-03-04 06:15:00,19.4,18.4,30.13,WNW,294,0.0,0.0,96,0.00,,,0.00,Wunderground v.1.15,2013-03-04 11:15:00,
2013-03-04 06:20:00,19.5,18.5,30.13,WNW,294,0.0,0.0,96,0.00,,,0.00,Wunderground v.1.15,2013-03-04 11:20:00,
2013-03-04 06:25:00,19.7,18.7,30.13,WNW,294,0.0,0.0,96,0.00,,,0.00,Wunderground v.1.15,2013-03-04 11:25:00,
2013-03-04 06:35:00,19.9,18.9,30.13,WNW,294,0.0,0.0,96,0.00,,,0.00,Wunderground v.1.15,2013-03-04 11:35:00,
2013-03-04 06:40:00,20.0,18.8,30.13,WNW,294,0.0,0.0,95,0.00,,,0.00,Wunderground v.1.15,2013-03-04 11:40:00,
2013-03-04 06:45:00,19.9,18.7,30.12,WNW,294,0.0,1.0,95,0.00,,,0.00,Wunderground v.1.15,2013-03-04 11:45:00,
2013-03-04 06:50:00,20.1,18.9,30.13,WNW,294,0.0,0.0,95,0.00,,,0.00,Wunderground v.1.15,2013-03-04 11:50:00,
2013-03-04 07:00:00,20.5,19.5,30.12,WNW,294,0.0,0.0,96,0.00,,,0.00,Wunderground v.1.15,2013-03-04 12:00:00,
2013-03-04 07:10:00,20.7,19.5,30.12,WNW,294,0.0,1.0,95,0.00,,,0.00,Wunderground v.1.15,2013-03-04 12:10:00,
2013-03-04 07:15:00,20.9,19.7,30.12,NNE,32,0.0,1.0,95,0.00,,,0.00,Wunderground v.1.15,2013-03-04 12:15:00,
2013-03-04 07:20:00,21.1,19.9,30.12,NE,35,0.0,1.0,95,0.00,,,0.00,Wunderground v.1.15,2013-03-04 12:20:00,
2013-03-04 07:25:00,21.2,20.0,30.12,NE,35,0.0,1.0,95,0.00,,,0.00,Wunderground v.1.15,2013-03-04 12:25:00,
2013-03-04 07:30:00,21.3,20.1,30.12,NE,35,0.0,1.0,95,0.00,,,0.00,Wunderground v.1.15,2013-03-04 12:30:00,
2013-03-04 07:35:00,21.4,20.2,30.12,NE,42,0.0,1.0,95,0.00,,,0.00,Wunderground v.1.15,2013-03-04 12:35:00,
2013-03-04 07:40:00,21.5,20.3,30.12,NE,49,0.0,2.0,95,0.00,,,0.00,Wunderground v.1.15,2013-03-04 12:40:00,
2013-03-04 07:45:00,21.7,20.5,30.13,NE,49,0.0,2.0,95,0.00,,,0.00,Wunderground v.1.15,2013-03-04 12:45:00,
2013-03-04 07:55:00,22.1,20.9,30.13,ENE,72,0.0,1.0,95,0.00,,,0.00,Wunderground v.1.15,2013-03-04 12:55:00,
2013-03-04 08:00:00,22.4,21.2,30.13,ESE,111,0.0,1.0,95,0.00,,,0.00,Wunderground v.1.15,2013-03-04 13:00:00,
2013-03-04 08:05:00,22.8,21.6,30.12,ESE,119,1.0,1.0,95,0.00,,,0.00,Wunderground v.1.15,2013-03-04 13:05:00,
2013-03-04 08:10:00,23.2,21.7,30.13,ESE,107,1.0,1.0,94,0.00,,,0.00,Wunderground v.1.15,2013-03-04 13:10:00,
2013-03-04 08:20:00,24.0,22.0,30.13,ESE,112,2.0,2.0,92,0.00,,,0.00,Wunderground v.1.15,2013-03-04 13:20:00,
2013-03-04 08:25:00,24.3,22.3,30.13,ENE,77,2.0,3.0,92,0.00,,,0.00,Wunderground v.1.15,2013-03-04 13:25:00,
2013-03-04 08:30:00,24.6,22.3,30.13,East,90,1.0,5.0,91,0.00,,,0.00,Wunderground v.1.15,2013-03-04 13:30:00,
2013-03-04 08:35:00,24.9,22.4,30.13,East,85,2.0,5.0,90,0.00,,,0.00,Wunderground v.1.15,2013-03-04 13:35:00,
2013-03-04 08:40:00,25.2,22.7,30.13,ESE,109,2.0,2.0,90,0.00,,,0.00,Wunderground v.1.15,2013-03-04 13:40:00,
2013-03-04 08:50:00,26.1,23.3,30.13,ESE,112,2.0,2.0,89,0.00,,,0.00,Wunderground v.1.15,2013-03-04 13:50:00,
2013-03-04 09:00:00,26.8,24.0,30.13,ESE,103,2.0,3.0,89,0.00,,,0.00,Wunderground v.1.15,2013-03-04 14:00:00,
2013-03-04 09:05:00,27.0,23.9,30.13,East,92,2.0,3.0,88,0.00,,,0.00,Wunderground v.1.15,2013-03-04 14:05:00,
2013-03-04 09:10:00,27.2,23.8,30.13,ESE,113,2.0,2.0,87,0.00,,,0.00,Wunderground v.1.15,2013-03-04 14:10:00,
2013-03-04 09:15:00,27.5,24.1,30.13,ESE,103,3.0,3.0,87,0.00,,,0.00,Wunderground v.1.15,2013-03-04 14:15:00,
2013-03-04 09:20:00,27.7,24.1,30.13,ESE,119,2.0,4.0,86,0.00,,,0.00,Wunderground v.1.15,2013-03-04 14:20:00,
2013-03-04 09:25:00,28.0,24.4,30.13,East,91,2.0,4.0,86,0.00,,,0.00,Wunderground v.1.15,2013-03-04 14:25:00,
2013-03-04 09:30:00,28.4,24.7,30.12,East,88,2.0,5.0,86,0.00,,,0.00,Wunderground v.1.15,2013-03-04 14:30:00,
2013-03-04 09:35:00,28.8,24.9,30.12,East,98,2.0,5.0,85,0.00,,,0.00,Wunderground v.1.15,2013-03-04 14:35:00,
2013-03-04 09:40:00,29.2,25.3,30.12,SE,141,2.0,4.0,85,0.00,,,0.00,Wunderground v.1.15,2013-03-04 14:40:00,
2013-03-04 09:45:00,29.6,25.4,30.12,East,88,2.0,4.0,84,0.00,,,0.00,Wunderground v.1.15,2013-03-04 14:45:00,
2013-03-04 09:50:00,29.9,25.4,30.12,ESE,119,2.0,5.0,83,0.00,,,0.00,Wunderground v.1.15,2013-03-04 14:50:00,
2013-03-04 09:55:00,30.2,25.4,30.11,SE,134,3.0,5.0,82,0.00,,,0.00,Wunderground v.1.15,2013-03-04 14:55:00,
2013-03-04 10:00:00,30.5,25.4,30.11,ESE,113,3.0,3.0,81,0.00,,,0.00,Wunderground v.1.15,2013-03-04 15:00:00,
2013-03-04 10:05:00,30.7,25.0,30.11,ESE,119,4.0,4.0,79,0.00,,,0.00,Wunderground v.1.15,2013-03-04 15:05:00,
2013-03-04 10:10:00,30.8,25.1,30.11,ESE,112,4.0,4.0,79,0.00,,,0.00,Wunderground v.1.15,2013-03-04 15:10:00,
2013-03-04 10:15:00,31.1,25.3,30.11,East,100,4.0,4.0,79,0.00,,,0.00,Wunderground v.1.15,2013-03-04 15:15:00,
2013-03-04 10:25:00,31.8,25.4,30.11,SE,130,4.0,4.0,77,0.00,,,0.00,Wunderground v.1.15,2013-03-04 15:25:00,
2013-03-04 10:35:00,32.3,26.2,30.11,SE,130,3.0,3.0,78,0.00,,,0.00,Wunderground v.1.15,2013-03-04 15:35:00,
2013-03-04 10:40:00,32.4,25.7,30.11,SE,128,3.0,4.0,76,0.00,,,0.00,Wunderground v.1.15,2013-03-04 15:40:00,
2013-03-04 10:45:00,32.5,25.8,30.10,East,82,3.0,6.0,76,0.00,,,0.00,Wunderground v.1.15,2013-03-04 15:45:00,
2013-03-04 10:50:00,32.7,26.0,30.10,ESE,112,4.0,4.0,76,0.00,,,0.00,Wunderground v.1.15,2013-03-04 15:50:00,
2013-03-04 10:55:00,32.9,26.2,30.10,ESE,106,4.0,5.0,76,0.00,,,0.00,Wunderground v.1.15,2013-03-04 15:55:00,
2013-03-04 11:05:00,32.8,25.7,30.09,SE,130,4.0,4.0,75,0.00,,,0.00,Wunderground v.1.15,2013-03-04 16:05:00,
2013-03-04 11:10:00,33.1,25.7,30.09,ESE,102,4.0,4.0,74,0.00,,,0.00,Wunderground v.1.15,2013-03-04 16:10:00,
2013-03-04 11:20:00,33.3,25.6,30.09,ESE,121,4.0,4.0,73,0.00,,,0.00,Wunderground v.1.15,2013-03-04 16:20:00,
2013-03-04 11:25:00,33.5,25.4,30.09,ESE,111,3.0,4.0,72,0.00,,,0.00,Wunderground v.1.15,2013-03-04 16:25:00,
2013-03-04 11:30:00,33.6,25.5,30.08,ESE,115,4.0,4.0,72,0.00,,,0.00,Wunderground v.1.15,2013-03-04 16:30:00,
2013-03-04 11:40:00,33.7,25.6,30.08,SE,140,4.0,4.0,72,0.00,,,0.00,Wunderground v.1.15,2013-03-04 16:40:00,
2013-03-04 11:45:00,33.9,25.8,30.08,ESE,115,4.0,8.0,72,0.00,,,0.00,Wunderground v.1.15,2013-03-04 16:45:00,
2013-03-04 11:50:00,34.1,25.7,30.08,ESE,121,4.0,4.0,71,0.00,,,0.00,Wunderground v.1.15,2013-03-04 16:50:00,
2013-03-04 11:55:00,34.3,25.9,30.08,ESE,117,4.0,4.0,71,0.00,,,0.00,Wunderground v.1.15,2013-03-04 16:55:00,
2013-03-04 12:05:00,34.3,25.5,30.08,SE,141,4.0,5.0,70,0.00,,,0.00,Wunderground v.1.15,2013-03-04 17:05:00,
2013-03-04 12:10:00,34.6,26.5,30.08,ESE,116,4.0,5.0,72,0.00,,,0.00,Wunderground v.1.15,2013-03-04 17:10:00,
2013-03-04 12:15:00,34.7,26.3,30.07,SE,126,3.0,5.0,71,0.00,,,0.00,Wunderground v.1.15,2013-03-04 17:15:00,
2013-03-04 12:20:00,34.9,25.8,30.07,SE,127,4.0,4.0,69,0.00,,,0.00,Wunderground v.1.15,2013-03-04 17:20:00,
2013-03-04 12:25:00,35.1,24.9,30.07,SSE,150,4.0,5.0,66,0.00,,,0.00,Wunderground v.1.15,2013-03-04 17:25:00,
2013-03-04 12:30:00,35.1,25.6,30.07,ESE,108,4.0,4.0,68,0.00,,,0.00,Wunderground v.1.15,2013-03-04 17:30:00,
2013-03-04 12:35:00,35.6,25.4,30.07,ESE,103,4.0,4.0,66,0.00,,,0.00,Wunderground v.1.15,2013-03-04 17:35:00,
2013-03-04 12:45:00,35.7,24.7,30.06,SE,128,5.0,5.0,64,0.00,,,0.00,Wunderground v.1.15,2013-03-04 17:45:00,
2013-03-04 12:50:00,35.9,24.1,30.06,SSE,147,4.0,4.0,62,0.00,,,0.00,Wunderground v.1.15,2013-03-04 17:50:00,
2013-03-04 12:55:00,36.0,25.4,30.06,ESE,105,3.0,4.0,65,0.00,,,0.00,Wunderground v.1.15,2013-03-04 17:55:00,
2013-03-04 13:00:00,36.2,25.6,30.06,SE,126,3.0,3.0,65,0.00,,,0.00,Wunderground v.1.15,2013-03-04 18:00:00,
2013-03-04 13:05:00,36.1,24.7,30.05,ESE,111,3.0,4.0,63,0.00,,,0.00,Wunderground v.1.15,2013-03-04 18:05:00,
2013-03-04 13:10:00,36.0,25.0,30.05,ESE,108,4.0,4.0,64,0.00,,,0.00,Wunderground v.1.15,2013-03-04 18:10:00,
2013-03-04 13:15:00,35.9,24.9,30.05,SE,124,4.0,4.0,64,0.00,,,0.00,Wunderground v.1.15,2013-03-04 18:15:00,
2013-03-04 13:25:00,35.7,25.1,30.04,SE,131,3.0,4.0,65,0.00,,,0.00,Wunderground v.1.15,2013-03-04 18:25:00,
2013-03-04 13:30:00,35.6,23.9,30.04,SE,146,4.0,4.0,62,0.00,,,0.00,Wunderground v.1.15,2013-03-04 18:30:00,
2013-03-04 13:35:00,35.6,23.9,30.04,ESE,117,5.0,5.0,62,0.00,,,0.00,Wunderground v.1.15,2013-03-04 18:35:00,
2013-03-04 13:40:00,35.7,23.9,30.03,ESE,123,4.0,4.0,62,0.00,,,0.00,Wunderground v.1.15,2013-03-04 18:40:00,
2013-03-04 13:45:00,35.8,24.0,30.03,SE,127,3.0,4.0,62,0.00,,,0.00,Wunderground v.1.15,2013-03-04 18:45:00,
2013-03-04 13:50:00,35.9,23.7,30.02,East,82,3.0,3.0,61,0.00,,,0.00,Wunderground v.1.15,2013-03-04 18:50:00,
2013-03-04 14:00:00,36.3,25.3,30.02,SE,130,3.0,3.0,64,0.00,,,0.00,Wunderground v.1.15,2013-03-04 19:00:00,
2013-03-04 14:05:00,36.5,25.5,30.02,SE,126,4.0,4.0,64,0.00,,,0.00,Wunderground v.1.15,2013-03-04 19:05:00,
2013-03-04 14:10:00,36.4,25.0,30.02,ESE,115,4.0,7.0,63,0.00,,,0.00,Wunderground v.1.15,2013-03-04 19:10:00,
2013-03-04 14:15:00,36.4,25.4,30.02,ESE,106,4.0,7.0,64,0.00,,,0.00,Wunderground v.1.15,2013-03-04 19:15:00,
2013-03-04 14:25:00,36.3,25.7,30.02,East,79,4.0,7.0,65,0.00,,,0.00,Wunderground v.1.15,2013-03-04 19:25:00,
2013-03-04 14:30:00,36.2,25.6,30.02,East,96,4.0,4.0,65,0.00,,,0.00,Wunderground v.1.15,2013-03-04 19:30:00,
2013-03-04 14:35:00,36.2,25.6,30.01,ESE,113,5.0,5.0,65,0.00,,,0.00,Wunderground v.1.15,2013-03-04 19:35:00,
2013-03-04 14:40:00,36.2,25.6,30.01,SE,132,5.0,5.0,65,0.00,,,0.00,Wunderground v.1.15,2013-03-04 19:40:00,
2013-03-04 14:50:00,36.2,26.3,30.01,ENE,66,4.0,5.0,67,0.00,,,0.00,Wunderground v.1.15,2013-03-04 19:50:00,
2013-03-04 14:55:00,36.0,25.4,30.01,SE,138,5.0,5.0,65,0.00,,,0.00,Wunderground v.1.15,2013-03-04 19:55:00,
2013-03-04 15:00:00,35.7,25.8,30.02,SSE,153,4.0,4.0,67,0.00,,,0.00,Wunderground v.1.15,2013-03-04 20:00:00,
2013-03-04 15:05:00,35.7,25.8,30.01,ESE,111,4.0,10.0,67,0.00,,,0.00,Wunderground v.1.15,2013-03-04 20:05:00,
2013-03-04 15:10:00,35.7,25.4,30.01,East,96,4.0,10.0,66,0.00,,,0.00,Wunderground v.1.15,2013-03-04 20:10:00,
2013-03-04 15:15:00,35.6,25.4,30.01,SSE,159,5.0,10.0,66,0.00,,,0.00,Wunderground v.1.15,2013-03-04 20:15:00,
2013-03-04 15:20:00,35.6,26.4,30.01,SE,134,3.0,3.0,69,0.00,,,0.00,Wunderground v.1.15,2013-03-04 20:20:00,
2013-03-04 15:25:00,35.7,26.5,30.01,East,88,2.0,7.0,69,0.00,,,0.00,Wunderground v.1.15,2013-03-04 20:25:00,
2013-03-04 15:30:00,35.7,26.9,30.00,ESE,112,3.0,3.0,70,0.00,,,0.00,Wunderground v.1.15,2013-03-04 20:30:00,
2013-03-04 15:35:00,35.6,26.8,30.00,ESE,121,3.0,5.0,70,0.00,,,0.00,Wunderground v.1.15,2013-03-04 20:35:00,
2013-03-04 15:40:00,35.6,26.8,30.00,NE,52,4.0,10.0,70,0.00,,,0.00,Wunderground v.1.15,2013-03-04 20:40:00,
2013-03-04 15:50:00,35.5,27.0,30.00,East,96,4.0,10.0,71,0.00,,,0.00,Wunderground v.1.15,2013-03-04 20:50:00,
2013-03-04 15:55:00,35.6,27.1,30.00,ESE,121,3.0,10.0,71,0.00,,,0.00,Wunderground v.1.15,2013-03-04 20:55:00,
2013-03-04 16:00:00,35.7,27.6,30.00,East,101,4.0,4.0,72,0.00,,,0.00,Wunderground v.1.15,2013-03-04 21:00:00,
2013-03-04 16:05:00,35.8,27.7,30.00,East,84,3.0,7.0,72,0.00,,,0.00,Wunderground v.1.15,2013-03-04 21:05:00,
2013-03-04 16:10:00,35.9,28.1,30.00,ENE,68,4.0,4.0,73,0.00,,,0.00,Wunderground v.1.15,2013-03-04 21:10:00,
2013-03-04 16:15:00,36.1,27.9,30.00,ESE,102,3.0,10.0,72,0.00,,,0.00,Wunderground v.1.15,2013-03-04 21:15:00,
2013-03-04 16:20:00,36.1,28.6,30.00,East,98,2.0,10.0,74,0.00,,,0.00,Wunderground v.1.15,2013-03-04 21:20:00,
2013-03-04 16:30:00,35.8,28.3,29.99,ESE,113,5.0,5.0,74,0.00,,,0.00,Wunderground v.1.15,2013-03-04 21:30:00,
2013-03-04 16:35:00,35.7,28.2,29.98,East,80,5.0,6.0,74,0.00,,,0.00,Wunderground v.1.15,2013-03-04 21:35:00,
2013-03-04 16:40:00,35.7,28.6,29.98,NE,55,5.0,5.0,75,0.00,,,0.00,Wunderground v.1.15,2013-03-04 21:40:00,
2013-03-04 16:50:00,35.8,28.6,29.98,East,92,3.0,10.0,75,0.00,,,0.00,Wunderground v.1.15,2013-03-04 21:50:00,
2013-03-04 16:55:00,35.8,28.6,29.98,SE,146,3.0,10.0,75,0.00,,,0.00,Wunderground v.1.15,2013-03-04 21:55:00,
2013-03-04 17:00:00,35.7,28.9,29.98,NE,53,3.0,3.0,76,0.00,,,0.00,Wunderground v.1.15,2013-03-04 22:00:00,
2013-03-04 17:05:00,35.6,29.1,29.98,ENE,68,4.0,4.0,77,0.00,,,0.00,Wunderground v.1.15,2013-03-04 22:05:00,
2013-03-04 17:15:00,35.5,29.0,29.98,East,94,4.0,9.0,77,0.00,,,0.00,Wunderground v.1.15,2013-03-04 22:15:00,
2013-03-04 17:25:00,35.3,29.1,29.98,ENE,63,3.0,9.0,78,0.00,,,0.00,Wunderground v.1.15,2013-03-04 22:25:00,
2013-03-04 17:30:00,35.3,29.4,29.97,East,101,3.0,10.0,79,0.00,,,0.00,Wunderground v.1.15,2013-03-04 22:30:00,
2013-03-04 17:35:00,35.2,29.3,29.97,ESE,103,3.0,10.0,79,0.00,,,0.00,Wunderground v.1.15,2013-03-04 22:35:00,
2013-03-04 17:40:00,35.2,29.3,29.97,NE,40,3.0,10.0,79,0.00,,,0.00,Wunderground v.1.15,2013-03-04 22:40:00,
2013-03-04 17:50:00,35.0,29.1,29.96,SE,127,4.0,10.0,79,0.00,,,0.00,Wunderground v.1.15,2013-03-04 22:50:00,
2013-03-04 18:00:00,34.9,29.4,29.96,ENE,68,4.0,4.0,80,0.00,,,0.00,Wunderground v.1.15,2013-03-04 23:00:00,
2013-03-04 18:05:00,34.8,29.3,29.95,ESE,111,4.0,10.0,80,0.00,,,0.00,Wunderground v.1.15,2013-03-04 23:05:00,
2013-03-04 18:15:00,34.8,29.0,29.96,East,89,4.0,6.0,79,0.00,,,0.00,Wunderground v.1.15,2013-03-04 23:15:00,
2013-03-04 18:20:00,34.8,29.0,29.96,NNW,340,4.0,10.0,79,0.00,,,0.00,Wunderground v.1.15,2013-03-04 23:20:00,
2013-03-04 18:25:00,34.7,28.9,29.97,ENE,61,4.0,11.0,79,0.00,,,0.00,Wunderground v.1.15,2013-03-04 23:25:00,
2013-03-04 18:35:00,34.7,28.5,29.98,East,96,3.0,10.0,78,0.00,,,0.00,Wunderground v.1.15,2013-03-04 23:35:00,
2013-03-04 18:40:00,34.7,28.9,29.98,East,88,2.0,10.0,79,0.00,,,0.00,Wunderground v.1.15,2013-03-04 23:40:00,
2013-03-04 18:45:00,34.7,28.9,29.98,East,86,3.0,10.0,79,0.00,,,0.00,Wunderground v.1.15,2013-03-04 23:45:00,
2013-03-04 18:50:00,34.7,28.9,29.98,ESE,107,3.0,3.0,79,0.00,,,0.00,Wunderground v.1.15,2013-03-04 23:50:00,
2013-03-04 18:55:00,34.7,28.9,29.98,SE,146,3.0,4.0,79,0.00,,,0.00,Wunderground v.1.15,2013-03-04 23:55:00,
2013-03-04 19:05:00,34.7,28.9,29.98,East,90,3.0,10.0,79,0.00,,,0.00,Wunderground v.1.15,2013-03-05 00:05:00,
2013-03-04 19:10:00,34.7,28.9,29.98,East,83,3.0,3.0,79,0.00,,,0.00,Wunderground v.1.15,2013-03-05 00:10:00,
2013-03-04 19:15:00,34.6,28.8,29.98,East,97,3.0,7.0,79,0.00,,,0.00,Wunderground v.1.15,2013-03-05 00:15:00,
2013-03-04 19:20:00,34.7,28.5,29.98,ESE,106,4.0,4.0,78,0.00,,,0.00,Wunderground v.1.15,2013-03-05 00:20:00,
2013-03-04 19:25:00,34.7,28.5,29.98,ESE,110,4.0,10.0,78,0.00,,,0.00,Wunderground v.1.15,2013-03-05 00:25:00,
2013-03-04 19:30:00,34.7,28.5,29.98,ESE,105,4.0,4.0,78,0.00,,,0.00,Wunderground v.1.15,2013-03-05 00:30:00,
2013-03-04 19:40:00,34.7,28.5,29.99,East,93,4.0,10.0,78,0.00,,,0.00,Wunderground v.1.15,2013-03-05 00:40:00,
2013-03-04 19:45:00,34.7,28.5,29.99,ESE,119,3.0,10.0,78,0.00,,,0.00,Wunderground v.1.15,2013-03-05 00:45:00,
2013-03-04 19:50:00,34.7,28.9,30.00,ENE,76,3.0,3.0,79,0.00,,,0.00,Wunderground v.1.15,2013-03-05 00:50:00,
2013-03-04 19:55:00,34.7,28.9,30.00,ENE,70,3.0,10.0,79,0.00,,,0.00,Wunderground v.1.15,2013-03-05 00:55:00,
2013-03-04 20:00:00,34.6,28.8,30.00,ESE,103,3.0,3.0,79,0.00,,,0.00,Wunderground v.1.15,2013-03-05 01:00:00,
2013-03-04 20:05:00,34.6,28.8,30.00,ESE,105,2.0,10.0,79,0.00,,,0.00,Wunderground v.1.15,2013-03-05 01:05:00,
2013-03-04 20:10:00,34.5,28.7,30.00,ESE,121,2.0,10.0,79,0.00,,,0.00,Wunderground v.1.15,2013-03-05 01:10:00,
2013-03-04 20:15:00,34.5,29.0,30.00,East,96,2.0,10.0,80,0.00,,,0.00,Wunderground v.1.15,2013-03-05 01:15:00,
2013-03-04 20:25:00,34.5,29.0,30.00,SE,127,1.0,10.0,80,0.00,,,0.00,Wunderground v.1.15,2013-03-05 01:25:00,
2013-03-04 20:30:00,34.5,28.7,30.00,East,96,1.0,1.0,79,0.00,,,0.00,Wunderground v.1.15,2013-03-05 01:30:00,
2013-03-04 20:35:00,34.6,28.8,30.01,ENE,69,2.0,2.0,79,0.00,,,0.00,Wunderground v.1.15,2013-03-05 01:35:00,
2013-03-04 20:40:00,34.6,28.8,30.01,ENE,76,2.0,10.0,79,0.00,,,0.00,Wunderground v.1.15,2013-03-05 01:40:00,
2013-03-04 20:45:00,34.7,28.9,30.01,NNE,23,2.0,10.0,79,0.00,,,0.00,Wunderground v.1.15,2013-03-05 01:45:00,
2013-03-04 20:50:00,34.7,28.9,30.01,East,88,2.0,10.0,79,0.00,,,0.00,Wunderground v.1.15,2013-03-05 01:50:00,
2013-03-04 21:00:00,34.8,29.0,30.00,ESE,123,3.0,3.0,79,0.00,,,0.00,Wunderground v.1.15,2013-03-05 02:00:00,
2013-03-04 21:05:00,34.8,29.3,30.01,ENE,71,3.0,10.0,80,0.00,,,0.00,Wunderground v.1.15,2013-03-05 02:05:00,
2013-03-04 21:10:00,34.7,29.2,30.01,East,101,2.0,2.0,80,0.00,,,0.00,Wunderground v.1.15,2013-03-05 02:10:00,
2013-03-04 21:15:00,34.7,28.9,30.01,East,98,2.0,10.0,79,0.00,,,0.00,Wunderground v.1.15,2013-03-05 02:15:00,
2013-03-04 21:20:00,34.8,29.0,30.01,SE,124,3.0,10.0,79,0.00,,,0.00,Wunderground v.1.15,2013-03-05 02:20:00,
2013-03-04 21:25:00,34.8,29.0,30.01,ENE,68,3.0,10.0,79,0.00,,,0.00,Wunderground v.1.15,2013-03-05 02:25:00,
2013-03-04 21:30:00,34.8,29.0,30.00,ENE,69,3.0,3.0,79,0.00,,,0.00,Wunderground v.1.15,2013-03-05 02:30:00,
2013-03-04 21:40:00,34.8,29.0,30.00,East,95,2.0,10.0,79,0.00,,,0.00,Wunderground v.1.15,2013-03-05 02:40:00,
2013-03-04 21:50:00,34.9,29.0,30.00,ESE,105,3.0,10.0,79,0.00,,,0.00,Wunderground v.1.15,2013-03-05 02:50:00,
2013-03-04 21:55:00,34.9,29.4,30.00,ESE,106,3.0,10.0,80,0.00,,,0.00,Wunderground v.1.15,2013-03-05 02:55:00,
2013-03-04 22:05:00,34.8,29.6,30.00,East,98,3.0,10.0,81,0.00,,,0.00,Wunderground v.1.15,2013-03-05 03:05:00,
2013-03-04 22:15:00,34.7,29.2,29.99,ENE,57,4.0,10.0,80,0.00,,,0.00,Wunderground v.1.15,2013-03-05 03:15:00,
2013-03-04 22:20:00,34.8,29.6,29.99,ESE,108,4.0,4.0,81,0.00,,,0.00,Wunderground v.1.15,2013-03-05 03:20:00,
2013-03-04 22:25:00,34.8,29.6,29.99,ENE,63,3.0,10.0,81,0.00,,,0.00,Wunderground v.1.15,2013-03-05 03:25:00,
2013-03-04 22:30:00,34.8,29.6,29.99,ENE,76,3.0,3.0,81,0.00,,,0.00,Wunderground v.1.15,2013-03-05 03:30:00,
2013-03-04 22:35:00,34.8,29.6,29.99,NE,38,3.0,10.0,81,0.00,,,0.00,Wunderground v.1.15,2013-03-05 03:35:00,
2013-03-04 22:40:00,34.8,29.6,29.99,SE,136,3.0,3.0,81,0.00,,,0.00,Wunderground v.1.15,2013-03-05 03:40:00,
2013-03-04 22:50:00,34.8,29.6,29.99,East,100,4.0,4.0,81,0.00,,,0.00,Wunderground v.1.15,2013-03-05 03:50:00,
2013-03-04 22:55:00,34.8,29.9,29.98,ESE,108,3.0,10.0,82,0.00,,,0.00,Wunderground v.1.15,2013-03-05 03:55:00,
2013-03-04 23:00:00,34.7,29.5,29.98,ENE,70,3.0,10.0,81,0.00,,,0.00,Wunderground v.1.15,2013-03-05 04:00:00,
2013-03-04 23:05:00,34.8,29.6,29.98,SE,128,3.0,10.0,81,0.00,,,0.00,Wunderground v.1.15,2013-03-05 04:05:00,
2013-03-04 23:10:00,34.8,29.6,29.98,ESE,115,4.0,4.0,81,0.00,,,0.00,Wunderground v.1.15,2013-03-05 04:10:00,
2013-03-04 23:15:00,34.9,29.7,29.98,ENE,78,4.0,10.0,81,0.00,,,0.00,Wunderground v.1.15,2013-03-05 04:15:00,
2013-03-04 23:20:00,34.9,29.7,29.98,SE,126,4.0,4.0,81,0.00,,,0.00,Wunderground v.1.15,2013-03-05 04:20:00,
2013-03-04 23:25:00,35.0,29.8,29.98,ENE,59,3.0,7.0,81,0.00,,,0.00,Wunderground v.1.15,2013-03-05 04:25:00,
2013-03-04 23:30:00,35.0,29.5,29.98,East,89,4.0,4.0,80,0.00,,,0.00,Wunderground v.1.15,2013-03-05 04:30:00,
2013-03-04 23:40:00,35.2,29.3,29.97,East,88,4.0,4.0,79,0.00,,,0.00,Wunderground v.1.15,2013-03-05 04:40:00,
2013-03-04 23:45:00,35.5,29.6,29.97,East,98,5.0,7.0,79,0.00,,,0.00,Wunderground v.1.15,2013-03-05 04:45:00,
2013-03-04 23:50:00,35.6,29.7,29.97,ESE,105,4.0,4.0,79,0.00,,,0.00,Wunderground v.1.15,2013-03-05 04:50:00,
2013-03-04 23:55:00,35.5,29.6,29.97,ESE,104,4.0,10.0,79,0.00,,,0.00,Wunderground v.1.15,2013-03-05 04:55:00,